createdAt,value
2019-06-10T00:02:27.004Z,99.90
2019-06-10T00:04:55.558Z,99.90
2019-06-10T00:07:23.184Z,99.90
2019-06-10T00:09:51.170Z,99.90
2019-06-10T00:12:20.823Z,99.90
2019-06-10T00:14:48.133Z,99.90
2019-06-10T00:17:15.688Z,99.90
2019-06-10T00:19:43.237Z,99.90
2019-06-10T00:22:11.547Z,99.90
2019-06-10T00:24:40.905Z,99.90
2019-06-10T00:27:09.378Z,99.90
2019-06-10T00:29:37.953Z,99.90
2019-06-10T00:32:08.030Z,99.90
2019-06-10T00:34:54.195Z,99.90
2019-06-10T00:37:21.750Z,99.90
2019-06-10T00:39:51.188Z,99.90
2019-06-10T00:42:21.148Z,99.90
2019-06-10T00:44:47.871Z,99.90
2019-06-10T00:47:15.644Z,99.90
2019-06-10T00:49:43.257Z,99.90
2019-06-10T00:52:12.259Z,99.90
2019-06-10T00:54:41.772Z,99.90
2019-06-10T00:57:11.941Z,99.90
2019-06-10T00:59:41.248Z,99.90
2019-06-10T01:02:08.664Z,99.90
2019-06-10T01:04:37.358Z,99.90
2019-06-10T01:07:04.913Z,99.90
2019-06-10T01:09:32.442Z,99.90
2019-06-10T01:12:01.191Z,99.90
2019-06-10T01:14:28.940Z,99.90
2019-06-10T01:16:56.490Z,99.90
2019-06-10T01:19:24.049Z,99.90
2019-06-10T01:21:51.592Z,99.90
2019-06-10T01:24:19.222Z,99.90
2019-06-10T01:26:46.766Z,99.90
2019-06-10T01:29:15.614Z,99.90
2019-06-10T01:31:43.229Z,99.90
2019-06-10T01:34:12.383Z,99.90
2019-06-10T01:36:40.578Z,99.90
2019-06-10T01:39:09.481Z,99.90
2019-06-10T01:41:37.512Z,99.90
2019-06-10T01:44:06.368Z,99.90
2019-06-10T01:46:34.116Z,99.90
2019-06-10T01:49:01.650Z,99.90
2019-06-10T01:51:31.536Z,99.90
2019-06-10T01:53:58.458Z,99.90
2019-06-10T01:56:26.029Z,99.90
2019-06-10T01:58:53.563Z,99.90
2019-06-10T02:01:38.070Z,99.90
2019-06-10T02:04:05.817Z,99.90
2019-06-10T02:06:33.374Z,99.90
2019-06-10T02:09:06.944Z,99.90
2019-06-10T02:11:34.863Z,99.90
2019-06-10T02:14:02.868Z,99.90
2019-06-10T02:16:32.498Z,99.90
2019-06-10T02:19:01.427Z,99.90
2019-06-10T02:21:31.014Z,99.90
2019-06-10T02:23:58.276Z,99.90
2019-06-10T02:26:25.847Z,99.90
2019-06-10T02:28:53.373Z,99.90
2019-06-10T02:31:30.259Z,99.90
2019-06-10T02:33:52.435Z,99.90
2019-06-10T02:36:27.230Z,99.90
2019-06-10T02:38:48.780Z,99.90
2019-06-10T02:41:20.264Z,99.90
2019-06-10T02:43:45.658Z,99.90
2019-06-10T02:46:15.621Z,99.90
2019-06-10T02:48:43.608Z,99.90
2019-06-10T02:51:14.797Z,99.90
2019-06-10T02:53:43.482Z,99.90
2019-06-10T02:56:12.447Z,99.90
2019-06-10T02:58:40.250Z,99.90
2019-06-10T03:01:08.534Z,99.90
2019-06-10T03:03:43.592Z,99.90
2019-06-10T03:06:08.186Z,99.90
2019-06-10T03:08:36.287Z,99.90
2019-06-10T03:11:04.155Z,99.90
2019-06-10T03:13:33.192Z,99.90
2019-06-10T03:16:15.729Z,99.90
2019-06-10T03:18:43.620Z,99.90
2019-06-10T03:21:12.397Z,99.90
2019-06-10T03:23:42.505Z,99.90
2019-06-10T03:26:09.429Z,99.90
2019-06-10T03:28:37.016Z,99.90
2019-06-10T03:31:06.200Z,99.90
2019-06-10T03:33:40.698Z,99.90
2019-06-10T03:36:03.497Z,99.90
2019-06-10T03:38:32.577Z,99.90
2019-06-10T03:41:02.996Z,99.90
2019-06-10T03:43:29.681Z,99.90
2019-06-10T03:45:57.222Z,99.90
2019-06-10T03:48:26.736Z,99.90
2019-06-10T03:50:54.043Z,99.90
2019-06-10T03:53:23.990Z,99.90
2019-06-10T03:55:52.649Z,99.90
2019-06-10T03:58:21.446Z,99.90
2019-06-10T04:00:52.105Z,99.90
2019-06-10T04:03:19.349Z,99.90
2019-06-10T04:05:47.011Z,99.90
2019-06-10T04:08:14.592Z,99.90
2019-06-10T04:10:42.986Z,99.90
2019-06-10T04:13:13.056Z,99.90
2019-06-10T04:15:39.941Z,99.90
2019-06-10T04:18:07.500Z,99.90
2019-06-10T04:20:35.058Z,99.90
2019-06-10T04:23:02.834Z,99.90
2019-06-10T04:25:32.391Z,99.90
2019-06-10T04:27:59.833Z,99.90
2019-06-10T04:30:28.152Z,99.90
2019-06-10T04:32:56.812Z,99.90
2019-06-10T04:35:25.951Z,99.90
2019-06-10T04:37:53.630Z,99.90
2019-06-10T04:40:23.505Z,99.90
2019-06-10T04:42:52.389Z,99.90
2019-06-10T04:45:21.173Z,99.90
2019-06-10T04:47:49.009Z,99.90
2019-06-10T04:50:24.690Z,99.90
2019-06-10T04:52:45.832Z,99.90
2019-06-10T04:55:13.401Z,99.90
2019-06-10T04:57:42.908Z,99.90
2019-06-10T05:00:12.091Z,99.90
2019-06-10T05:02:39.497Z,99.90
2019-06-10T05:05:07.134Z,99.90
2019-06-10T05:07:37.009Z,99.90
2019-06-10T05:10:05.600Z,99.90
2019-06-10T05:12:33.151Z,99.90
2019-06-10T05:15:03.279Z,99.90
2019-06-10T05:17:31.755Z,99.90
2019-06-10T05:19:59.230Z,99.90
2019-06-10T05:22:28.160Z,99.90
2019-06-10T05:24:56.123Z,99.90
2019-06-10T05:27:25.339Z,99.90
2019-06-10T05:29:52.984Z,99.90
2019-06-10T05:32:22.770Z,99.90
2019-06-10T05:34:52.652Z,99.90
2019-06-10T05:37:19.091Z,99.90
2019-06-10T05:39:46.633Z,99.90
2019-06-10T05:42:14.202Z,99.90
2019-06-10T05:44:43.050Z,99.90
2019-06-10T05:47:12.670Z,99.90
2019-06-10T05:49:40.078Z,99.90
2019-06-10T05:52:07.643Z,99.90
2019-06-10T05:54:35.550Z,99.90
2019-06-10T05:57:03.372Z,99.90
2019-06-10T05:59:31.577Z,99.90
2019-06-10T06:02:02.267Z,99.90
2019-06-10T06:04:30.579Z,99.90
2019-06-10T06:06:58.767Z,99.90
2019-06-10T06:09:27.146Z,99.90
2019-06-10T06:11:54.853Z,99.90
2019-06-10T06:14:22.699Z,99.90
2019-06-10T06:16:53.190Z,99.90
2019-06-10T06:19:19.724Z,99.90
2019-06-10T06:21:47.972Z,99.90
2019-06-10T06:24:15.772Z,99.90
2019-06-10T06:26:43.521Z,99.90
2019-06-10T06:29:13.012Z,99.90
2019-06-10T06:31:42.729Z,99.90
2019-06-10T06:34:09.757Z,99.90
2019-06-10T06:36:38.319Z,99.90
2019-06-10T06:39:06.501Z,99.90
2019-06-10T06:41:34.590Z,99.90
2019-06-10T06:44:03.492Z,99.90
2019-06-10T06:46:34.583Z,99.90
2019-06-10T06:49:02.092Z,99.90
2019-06-10T06:51:37.960Z,99.90
2019-06-10T06:53:58.844Z,99.90
2019-06-10T06:56:26.396Z,99.90
2019-06-10T06:59:02.517Z,99.90
2019-06-10T07:01:32.922Z,99.90
2019-06-10T07:03:59.538Z,99.90
2019-06-10T07:06:27.093Z,99.90
2019-06-10T07:09:04.111Z,99.90
2019-06-10T07:11:23.980Z,99.90
2019-06-10T07:14:13.294Z,99.90
2019-06-10T07:16:43.824Z,99.90
2019-06-10T07:19:09.503Z,99.90
2019-06-10T07:21:52.829Z,99.90
2019-06-10T07:24:06.306Z,99.90
2019-06-10T07:26:36.098Z,99.90
2019-06-10T07:29:03.157Z,99.90
2019-06-10T07:31:33.605Z,99.90
2019-06-10T07:34:02.442Z,99.90
2019-06-10T07:36:29.312Z,99.90
2019-06-10T07:38:56.905Z,99.90
2019-06-10T07:41:24.435Z,99.90
2019-06-10T07:43:53.142Z,99.90
2019-06-10T07:46:23.105Z,99.90
2019-06-10T07:48:53.581Z,99.90
2019-06-10T07:51:19.367Z,99.90
2019-06-10T07:53:46.985Z,99.90
2019-06-10T07:56:14.558Z,99.90
2019-06-10T07:58:46.934Z,99.90
2019-06-10T08:01:13.277Z,99.90
2019-06-10T08:03:42.516Z,99.90
2019-06-10T08:06:12.445Z,99.90
2019-06-10T08:08:39.304Z,99.90
2019-06-10T08:11:06.843Z,99.90
2019-06-10T08:13:35.203Z,99.90
2019-06-10T08:16:03.040Z,99.90
2019-06-10T08:18:38.480Z,99.90
2019-06-10T08:20:59.860Z,99.90
2019-06-10T08:23:27.432Z,99.90
2019-06-10T08:25:57.762Z,99.90
2019-06-10T08:28:24.267Z,99.90
2019-06-10T08:30:53.275Z,99.90
2019-06-10T08:33:22.760Z,99.90
2019-06-10T08:35:57.275Z,99.90
2019-06-10T08:38:19.800Z,99.90
2019-06-10T08:40:48.523Z,99.90
2019-06-10T08:43:16.316Z,99.90
2019-06-10T08:45:45.827Z,99.90
2019-06-10T08:48:13.311Z,99.90
2019-06-10T08:50:41.922Z,99.90
2019-06-10T08:53:14.751Z,99.90
2019-06-10T08:55:39.693Z,99.90
2019-06-10T08:58:07.994Z,99.90
2019-06-10T09:00:35.588Z,99.90
2019-06-10T09:03:04.019Z,99.90
2019-06-10T09:05:32.442Z,99.90
2019-06-10T09:08:02.600Z,99.90
2019-06-10T09:10:29.479Z,99.90
2019-06-10T09:12:57.042Z,99.90
2019-06-10T09:15:24.567Z,99.90
2019-06-10T09:17:55.830Z,99.90
2019-06-10T09:20:22.996Z,99.90
2019-06-10T09:23:13.766Z,99.90
2019-06-10T09:25:22.459Z,99.90
2019-06-10T09:27:51.507Z,99.90
2019-06-10T09:30:18.620Z,99.90
2019-06-10T09:32:50.008Z,99.90
2019-06-10T09:35:15.507Z,99.90
2019-06-10T09:37:48.398Z,99.90
2019-06-10T09:40:12.440Z,99.90
2019-06-10T09:42:43.898Z,99.90
2019-06-10T09:45:09.738Z,99.90
2019-06-10T09:47:37.585Z,99.90
2019-06-10T09:50:12.126Z,99.90
2019-06-10T09:52:41.588Z,99.90
2019-06-10T09:55:08.311Z,99.90
2019-06-10T09:57:35.889Z,99.90
2019-06-10T10:00:05.139Z,99.90
2019-06-10T10:02:33.168Z,99.90
2019-06-10T10:05:00.820Z,99.90
2019-06-10T10:07:28.418Z,99.90
2019-06-10T10:09:57.018Z,99.90
2019-06-10T10:12:25.045Z,99.90
2019-06-10T10:14:56.164Z,99.90
2019-06-10T10:17:23.204Z,98.30
2019-06-10T10:19:56.601Z,95.60
2019-06-10T10:22:22.758Z,97.40
2019-06-10T10:24:49.523Z,97.60
2019-06-10T10:27:17.131Z,99.90
2019-06-10T10:29:47.168Z,99.90
2019-06-10T10:32:14.014Z,99.90
2019-06-10T10:34:43.709Z,97.20
2019-06-10T10:37:12.367Z,93.20
2019-06-10T10:39:40.168Z,95.30
2019-06-10T10:42:07.712Z,96.30
2019-06-10T10:44:35.284Z,93.40
2019-06-10T10:47:03.767Z,90.90
2019-06-10T10:49:32.564Z,84.90
2019-06-10T10:52:02.520Z,82.30
2019-06-10T10:54:36.059Z,88.90
2019-06-10T10:56:59.423Z,83.60
2019-06-10T10:59:27.099Z,81.10
2019-06-10T11:01:54.658Z,82.10
2019-06-10T11:04:23.327Z,79.90
2019-06-10T11:06:54.321Z,73.60
2019-06-10T11:09:22.356Z,74.10
2019-06-10T11:11:53.463Z,74.50
2019-06-10T11:14:19.443Z,69.80
2019-06-10T11:17:06.412Z,70.40
2019-06-10T11:19:33.975Z,75.60
2019-06-10T11:22:02.762Z,84.00
2019-06-10T11:24:37.757Z,90.20
2019-06-10T11:26:59.945Z,92.60
2019-06-10T11:29:27.534Z,93.40
2019-06-10T11:31:57.358Z,94.70
2019-06-10T11:34:24.413Z,95.40
2019-06-10T11:36:55.091Z,97.10
2019-06-10T11:39:22.532Z,98.30
2019-06-10T11:41:52.477Z,99.50
2019-06-10T11:44:19.521Z,99.90
2019-06-10T11:46:47.113Z,99.90
2019-06-10T11:49:14.670Z,99.90
2019-06-10T11:51:42.230Z,99.90
2019-06-10T11:54:09.771Z,99.90
2019-06-10T11:56:37.350Z,99.90
2019-06-10T11:59:09.475Z,99.90
2019-06-10T12:01:34.216Z,99.90
2019-06-10T12:04:04.061Z,99.90
2019-06-10T12:06:33.377Z,99.90
2019-06-10T12:09:02.871Z,99.90
2019-06-10T12:11:29.669Z,99.90
2019-06-10T12:14:02.228Z,99.90
2019-06-10T12:17:15.597Z,99.90
2019-06-10T12:18:57.352Z,99.90
2019-06-10T12:21:25.179Z,99.90
2019-06-10T12:23:57.011Z,99.90
2019-06-10T12:26:23.274Z,99.90
2019-06-10T12:28:54.640Z,99.90
2019-06-10T12:31:22.962Z,99.90
2019-06-10T12:33:51.139Z,99.90
2019-06-10T12:36:19.194Z,99.90
2019-06-10T12:38:46.819Z,99.90
2019-06-10T12:41:14.383Z,99.90
2019-06-10T12:43:43.386Z,99.90
2019-06-10T12:46:12.726Z,99.90
2019-06-10T12:48:42.727Z,99.90
2019-06-10T12:51:10.005Z,99.90
2019-06-10T12:53:37.666Z,99.90
2019-06-10T12:56:10.045Z,99.90
2019-06-10T12:58:34.660Z,99.90
2019-06-10T13:01:05.826Z,99.90
2019-06-10T13:03:32.913Z,99.90
2019-06-10T13:06:03.585Z,99.90
2019-06-10T13:08:30.291Z,99.90
2019-06-10T13:10:58.091Z,99.90
2019-06-10T13:13:25.691Z,99.90
2019-06-10T13:15:53.486Z,99.90
2019-06-10T13:18:23.483Z,99.90
2019-06-10T13:20:50.449Z,99.90
2019-06-10T13:23:25.348Z,99.90
2019-06-10T13:25:54.552Z,99.90
2019-06-10T13:28:16.569Z,99.90
2019-06-10T13:30:44.122Z,99.90
2019-06-10T13:33:14.470Z,99.90
2019-06-10T13:35:41.801Z,99.90
2019-06-10T13:38:10.251Z,99.90
2019-06-10T13:40:37.803Z,99.90
2019-06-10T13:43:06.063Z,99.90
2019-06-10T13:45:33.811Z,99.90
2019-06-10T13:48:06.087Z,99.90
2019-06-10T13:50:32.762Z,99.90
2019-06-10T13:53:01.110Z,99.90
2019-06-10T13:55:29.410Z,99.90
2019-06-10T13:57:56.997Z,99.90
2019-06-10T14:00:40.528Z,99.90
2019-06-10T14:02:53.809Z,99.90
2019-06-10T14:05:22.605Z,99.90
2019-06-10T14:07:52.078Z,99.90
2019-06-10T14:10:19.798Z,99.90
2019-06-10T14:12:48.938Z,99.90
2019-06-10T14:15:17.208Z,99.90
2019-06-10T14:17:45.014Z,99.90
2019-06-10T14:20:15.272Z,99.90
2019-06-10T14:22:42.594Z,99.90
2019-06-10T14:25:12.088Z,99.90
2019-06-10T14:27:42.522Z,99.90
2019-06-10T14:30:09.675Z,99.90
2019-06-10T14:32:37.283Z,99.90
2019-06-10T14:35:07.008Z,99.90
2019-06-10T14:37:39.087Z,99.90
2019-06-10T14:40:08.513Z,99.90
2019-06-10T14:42:36.620Z,99.90
2019-06-10T14:45:04.750Z,99.90
2019-06-10T14:47:32.563Z,99.90
2019-06-10T14:50:00.175Z,99.90
2019-06-10T14:52:27.848Z,99.90
2019-06-10T14:54:57.588Z,99.90
2019-06-10T14:57:25.066Z,99.90
2019-06-10T14:59:53.236Z,99.90
2019-06-10T15:02:21.083Z,99.90
2019-06-10T15:04:48.719Z,99.90
2019-06-10T15:07:16.501Z,99.90
2019-06-10T15:09:44.246Z,99.90
2019-06-10T15:12:14.249Z,99.90
2019-06-10T15:14:42.751Z,99.90
2019-06-10T15:17:10.759Z,99.90
2019-06-10T15:19:38.420Z,99.90
2019-06-10T15:22:05.969Z,99.90
2019-06-10T15:24:35.460Z,99.90
2019-06-10T15:27:12.662Z,99.90
2019-06-10T15:29:32.817Z,99.90
2019-06-10T15:32:10.500Z,99.90
2019-06-10T15:34:32.450Z,99.90
2019-06-10T15:36:59.249Z,99.90
2019-06-10T15:39:26.845Z,99.90
2019-06-10T15:41:54.379Z,99.90
2019-06-10T15:44:40.366Z,99.90
2019-06-10T15:46:52.417Z,99.90
2019-06-10T15:49:24.410Z,99.90
2019-06-10T15:51:49.504Z,99.90
2019-06-10T15:54:19.014Z,99.90
2019-06-10T15:56:52.690Z,99.90
2019-06-10T15:59:18.009Z,99.90
2019-06-10T16:01:44.867Z,99.90
2019-06-10T16:04:14.446Z,99.90
2019-06-10T16:06:42.516Z,99.90
2019-06-10T16:09:13.451Z,99.90
2019-06-10T16:11:40.353Z,99.90
2019-06-10T16:14:08.761Z,99.90
2019-06-10T16:16:36.304Z,99.90
2019-06-10T16:19:03.880Z,99.90
2019-06-10T16:21:31.452Z,99.90
2019-06-10T16:23:58.989Z,99.90
2019-06-10T16:26:27.098Z,99.90
2019-06-10T16:28:54.874Z,99.90
2019-06-10T16:31:25.568Z,99.90
2019-06-10T16:33:52.720Z,99.90
2019-06-10T16:36:21.847Z,99.90
2019-06-10T16:38:49.736Z,99.90
2019-06-10T16:41:17.527Z,99.90
2019-06-10T16:43:45.220Z,99.90
2019-06-10T16:46:12.768Z,99.90
2019-06-10T16:48:41.339Z,99.90
2019-06-10T16:51:13.037Z,99.90
2019-06-10T16:53:39.360Z,99.90
2019-06-10T16:56:06.891Z,99.90
2019-06-10T16:58:34.447Z,99.90
2019-06-10T17:01:03.443Z,99.90
2019-06-10T17:03:33.823Z,99.90
2019-06-10T17:06:02.572Z,99.90
2019-06-10T17:08:30.365Z,99.90
2019-06-10T17:11:18.768Z,99.90
2019-06-10T17:13:46.550Z,99.90
2019-06-10T17:16:14.121Z,99.90
2019-06-10T17:18:41.665Z,99.90
2019-06-10T17:21:09.231Z,99.90
2019-06-10T17:23:36.898Z,99.90
2019-06-10T17:26:04.644Z,99.90
2019-06-10T17:28:36.394Z,99.90
2019-06-10T17:31:03.822Z,99.90
2019-06-10T17:33:35.125Z,99.90
2019-06-10T17:35:59.984Z,99.90
2019-06-10T17:38:28.872Z,99.90
2019-06-10T17:40:56.678Z,99.90
2019-06-10T17:43:25.816Z,99.90
2019-06-10T17:45:53.376Z,99.90
2019-06-10T17:48:23.311Z,99.90
2019-06-10T17:50:52.487Z,99.90
2019-06-10T17:53:19.531Z,99.90
2019-06-10T17:55:47.310Z,99.90
2019-06-10T17:58:14.990Z,99.90
2019-06-10T18:00:42.561Z,99.90
2019-06-10T18:03:10.108Z,99.90
2019-06-10T18:05:38.016Z,99.90
2019-06-10T18:08:05.940Z,99.90
2019-06-10T18:10:36.010Z,99.90
2019-06-10T18:13:13.157Z,99.90
2019-06-10T18:15:35.379Z,99.90
2019-06-10T18:18:03.520Z,99.90
2019-06-10T18:20:33.558Z,99.90
2019-06-10T18:23:02.582Z,99.90
2019-06-10T18:25:30.711Z,99.90
2019-06-10T18:27:58.952Z,99.90
2019-06-10T18:30:27.218Z,99.90
2019-06-10T18:32:54.873Z,99.90
2019-06-10T18:35:22.515Z,99.90
2019-06-10T18:37:50.162Z,99.90
2019-06-10T18:40:17.731Z,99.90
2019-06-10T18:42:45.472Z,99.90
2019-06-10T18:45:13.100Z,99.90
2019-06-10T18:47:42.298Z,99.90
2019-06-10T18:50:12.585Z,99.90
2019-06-10T18:52:39.531Z,99.90
2019-06-10T18:55:07.145Z,99.90
2019-06-10T18:57:36.254Z,99.90
2019-06-10T19:00:11.945Z,99.90
2019-06-10T19:02:38.619Z,99.90
2019-06-10T19:05:07.939Z,99.90
2019-06-10T19:07:36.992Z,99.90
2019-06-10T19:10:05.488Z,99.90
2019-06-10T19:12:34.093Z,99.90
2019-06-10T19:15:02.815Z,99.90
2019-06-10T19:17:34.836Z,99.90
2019-06-10T19:19:59.838Z,99.90
2019-06-10T19:22:27.423Z,99.90
2019-06-10T19:24:54.985Z,99.90
2019-06-10T19:27:23.744Z,99.90
2019-06-10T19:29:54.603Z,99.90
2019-06-10T19:32:20.899Z,99.90
2019-06-10T19:34:48.777Z,99.90
2019-06-10T19:37:16.467Z,99.90
2019-06-10T19:39:50.310Z,99.90
2019-06-10T19:42:13.318Z,99.90
2019-06-10T19:44:43.743Z,99.90
2019-06-10T19:47:10.156Z,99.90
2019-06-10T19:49:38.640Z,99.90
2019-06-10T19:52:06.241Z,99.90
2019-06-10T19:54:34.943Z,99.90
2019-06-10T19:57:02.816Z,99.90
2019-06-10T19:59:46.163Z,99.90
2019-06-10T20:01:59.835Z,99.90
2019-06-10T20:04:27.412Z,99.90
2019-06-10T20:06:54.943Z,99.90
2019-06-10T20:09:22.773Z,99.90
2019-06-10T20:11:50.410Z,99.90
2019-06-10T20:14:17.953Z,99.90
2019-06-10T20:16:46.162Z,99.90
2019-06-10T20:19:13.842Z,99.90
2019-06-10T20:21:43.611Z,99.90
2019-06-10T20:24:12.475Z,99.90
2019-06-10T20:26:41.233Z,99.90
2019-06-10T20:29:09.241Z,99.90
2019-06-10T20:31:37.858Z,99.90
2019-06-10T20:34:05.664Z,99.90
2019-06-10T20:36:33.631Z,99.90
2019-06-10T20:39:01.232Z,99.90
2019-06-10T20:41:28.790Z,99.90
2019-06-10T20:43:56.351Z,99.90
2019-06-10T20:46:23.914Z,99.90
2019-06-10T20:48:54.447Z,99.90
2019-06-10T20:51:22.687Z,99.90
2019-06-10T20:53:50.364Z,99.90
2019-06-10T20:56:20.428Z,99.90
2019-06-10T20:58:49.735Z,99.90
2019-06-10T21:01:18.004Z,99.90
2019-06-10T21:03:47.557Z,99.90
2019-06-10T21:06:14.877Z,99.90
2019-06-10T21:08:45.136Z,99.90
2019-06-10T21:11:12.881Z,99.90
2019-06-10T21:13:43.636Z,99.90
2019-06-10T21:16:12.490Z,99.90
2019-06-10T21:18:40.289Z,99.90
2019-06-10T21:21:08.061Z,99.90
2019-06-10T21:23:35.683Z,99.90
2019-06-10T21:26:03.463Z,99.90
2019-06-10T21:28:32.706Z,99.90
2019-06-10T21:31:02.773Z,99.90
2019-06-10T21:33:29.742Z,99.90
2019-06-10T21:35:57.533Z,99.90
2019-06-10T21:38:25.070Z,99.90
2019-06-10T21:40:54.092Z,99.90
2019-06-10T21:43:22.473Z,99.90
2019-06-10T21:45:56.193Z,99.90
2019-06-10T21:48:19.424Z,99.90
2019-06-10T21:50:48.621Z,99.90
2019-06-10T21:53:16.257Z,99.90
2019-06-10T21:55:45.150Z,99.90
2019-06-10T21:58:12.705Z,99.90
2019-06-10T22:00:52.790Z,99.90
2019-06-10T22:03:12.708Z,99.90
2019-06-10T22:05:42.860Z,99.90
2019-06-10T22:08:12.353Z,99.90
2019-06-10T22:10:39.231Z,99.90
2019-06-10T22:13:06.770Z,99.90
2019-06-10T22:15:34.342Z,99.90
2019-06-10T22:18:02.290Z,99.90
2019-06-10T22:20:32.276Z,99.90
2019-06-10T22:22:59.425Z,99.90
2019-06-10T22:25:27.005Z,99.90
2019-06-10T22:27:54.647Z,99.90
2019-06-10T22:30:22.899Z,99.90
2019-06-10T22:32:54.374Z,99.90
2019-06-10T22:35:19.934Z,99.90
2019-06-10T22:37:47.745Z,99.90
2019-06-10T22:40:15.419Z,99.90
2019-06-10T22:42:43.159Z,99.90
2019-06-10T22:45:13.163Z,99.90
2019-06-10T22:47:42.655Z,99.90
2019-06-10T22:50:12.467Z,99.90
2019-06-10T22:52:39.686Z,99.90
2019-06-10T22:55:07.215Z,99.90
2019-06-10T22:57:36.449Z,99.90
2019-06-10T23:00:08.394Z,99.90
2019-06-10T23:02:37.242Z,99.90
2019-06-10T23:05:05.618Z,99.90
2019-06-10T23:07:35.080Z,99.90
2019-06-10T23:10:03.369Z,99.90
2019-06-10T23:12:31.040Z,99.90
2019-06-10T23:14:59.303Z,99.90
2019-06-10T23:17:27.015Z,99.90
2019-06-10T23:19:56.520Z,99.90
2019-06-10T23:22:24.114Z,99.90
2019-06-10T23:24:51.656Z,99.90
2019-06-10T23:27:19.238Z,99.90
2019-06-10T23:29:46.952Z,99.90
2019-06-10T23:32:14.502Z,99.90
2019-06-10T23:34:42.341Z,99.90
2019-06-10T23:37:12.469Z,99.90
2019-06-10T23:39:39.383Z,99.90
2019-06-10T23:42:06.959Z,99.90
2019-06-10T23:44:55.128Z,99.90
2019-06-10T23:47:22.764Z,99.90
2019-06-10T23:49:51.391Z,99.90
2019-06-10T23:52:19.030Z,99.90
2019-06-10T23:54:46.600Z,99.90
2019-06-10T23:57:14.120Z,99.90
2019-06-10T23:59:42.736Z,99.90
